sensor_id;sensor_type;location;lat;lon;timestamp;pressure;altitude;pressure_sealevel;temperature;humidity
64340;BME280;63709;53.258;-8.814;2023-05-19T00:01:44;103139.53;;;13.26;100.00
64340;BME280;63709;53.258;-8.814;2023-05-19T00:04:13;103119.88;;;13.26;100.00
64340;BME280;63709;53.258;-8.814;2023-05-19T00:06:40;103112.78;;;13.25;100.00
64340;BME280;63709;53.258;-8.814;2023-05-19T00:09:08;103140.66;;;13.40;100.00
64340;BME280;63709;53.258;-8.814;2023-05-19T00:11:35;103129.28;;;13.35;100.00
64340;BME280;63709;53.258;-8.814;2023-05-19T00:14:03;103138.38;;;13.32;100.00
64340;BME280;63709;53.258;-8.814;2023-05-19T00:16:30;103136.69;;;13.29;100.00
64340;BME280;63709;53.258;-8.814;2023-05-19T00:19:00;103130.91;;;13.01;100.00
64340;BME280;63709;53.258;-8.814;2023-05-19T00:21:28;103136.44;;;12.98;100.00
64340;BME280;63709;53.258;-8.814;2023-05-19T00:23:54;103142.44;;;13.03;100.00
64340;BME280;63709;53.258;-8.814;2023-05-19T00:26:20;103125.13;;;12.91;100.00
64340;BME280;63709;53.258;-8.814;2023-05-19T00:28:49;103150.19;;;13.09;100.00
64340;BME280;63709;53.258;-8.814;2023-05-19T00:31:16;103130.34;;;12.94;100.00
64340;BME280;63709;53.258;-8.814;2023-05-19T00:33:43;103154.75;;;13.07;100.00
64340;BME280;63709;53.258;-8.814;2023-05-19T00:36:08;103152.66;;;12.95;100.00
64340;BME280;63709;53.258;-8.814;2023-05-19T00:38:35;103159.03;;;12.92;100.00
64340;BME280;63709;53.258;-8.814;2023-05-19T00:41:02;103152.06;;;12.88;100.00
64340;BME280;63709;53.258;-8.814;2023-05-19T00:43:28;103125.69;;;12.79;100.00
64340;BME280;63709;53.258;-8.814;2023-05-19T00:45:55;103144.31;;;12.82;100.00
64340;BME280;63709;53.258;-8.814;2023-05-19T00:48:24;103145.13;;;12.84;100.00
64340;BME280;63709;53.258;-8.814;2023-05-19T00:50:53;103131.34;;;12.73;100.00
64340;BME280;63709;53.258;-8.814;2023-05-19T00:53:19;103155.47;;;12.92;100.00
64340;BME280;63709;53.258;-8.814;2023-05-19T00:55:46;103144.03;;;12.88;100.00
64340;BME280;63709;53.258;-8.814;2023-05-19T00:58:12;103143.59;;;12.78;100.00
64340;BME280;63709;53.258;-8.814;2023-05-19T01:00:39;103142.94;;;12.73;100.00
64340;BME280;63709;53.258;-8.814;2023-05-19T01:03:05;103130.91;;;12.63;100.00
64340;BME280;63709;53.258;-8.814;2023-05-19T01:05:40;103125.19;;;12.52;100.00
64340;BME280;63709;53.258;-8.814;2023-05-19T01:08:07;103131.75;;;12.45;100.00
64340;BME280;63709;53.258;-8.814;2023-05-19T01:10:33;103096.06;;;12.05;100.00
64340;BME280;63709;53.258;-8.814;2023-05-19T01:12:59;103138.63;;;12.31;100.00
64340;BME280;63709;53.258;-8.814;2023-05-19T01:15:26;103124.03;;;12.18;100.00
64340;BME280;63709;53.258;-8.814;2023-05-19T01:17:58;103125.63;;;12.22;100.00
64340;BME280;63709;53.258;-8.814;2023-05-19T01:20:39;103119.09;;;12.09;100.00
64340;BME280;63709;53.258;-8.814;2023-05-19T01:31:20;103123.22;;;12.16;100.00
64340;BME280;63709;53.258;-8.814;2023-05-19T01:33:49;103143.38;;;12.25;100.00
64340;BME280;63709;53.258;-8.814;2023-05-19T01:36:16;103129.31;;;12.20;100.00
64340;BME280;63709;53.258;-8.814;2023-05-19T01:38:45;103145.09;;;12.26;100.00
64340;BME280;63709;53.258;-8.814;2023-05-19T01:41:13;103149.00;;;12.19;100.00
64340;BME280;63709;53.258;-8.814;2023-05-19T01:43:39;103161.00;;;12.10;100.00
64340;BME280;63709;53.258;-8.814;2023-05-19T01:46:05;103142.97;;;12.14;100.00
64340;BME280;63709;53.258;-8.814;2023-05-19T01:48:31;103153.34;;;12.01;100.00
64340;BME280;63709;53.258;-8.814;2023-05-19T01:50:58;103146.66;;;12.11;100.00
64340;BME280;63709;53.258;-8.814;2023-05-19T01:53:24;103150.72;;;12.20;100.00
64340;BME280;63709;53.258;-8.814;2023-05-19T01:55:52;103140.22;;;12.15;100.00
64340;BME280;63709;53.258;-8.814;2023-05-19T02:01:26;103154.53;;;11.94;100.00
64340;BME280;63709;53.258;-8.814;2023-05-19T02:06:45;103142.72;;;11.99;100.00
64340;BME280;63709;53.258;-8.814;2023-05-19T02:09:37;103146.50;;;11.94;100.00
64340;BME280;63709;53.258;-8.814;2023-05-19T02:12:26;103133.41;;;11.88;100.00
64340;BME280;63709;53.258;-8.814;2023-05-19T02:17:32;103130.47;;;11.94;100.00
64340;BME280;63709;53.258;-8.814;2023-05-19T02:20:03;103135.06;;;11.90;100.00
64340;BME280;63709;53.258;-8.814;2023-05-19T02:22:30;103129.78;;;11.89;100.00
64340;BME280;63709;53.258;-8.814;2023-05-19T02:24:56;103132.91;;;11.78;100.00
64340;BME280;63709;53.258;-8.814;2023-05-19T02:27:22;103124.75;;;11.81;100.00
64340;BME280;63709;53.258;-8.814;2023-05-19T02:29:48;103144.25;;;11.84;100.00
64340;BME280;63709;53.258;-8.814;2023-05-19T02:32:14;103141.31;;;11.91;100.00
64340;BME280;63709;53.258;-8.814;2023-05-19T02:34:41;103127.34;;;11.82;100.00
64340;BME280;63709;53.258;-8.814;2023-05-19T02:37:13;103131.09;;;11.78;100.00
64340;BME280;63709;53.258;-8.814;2023-05-19T02:39:39;103141.38;;;11.89;100.00
64340;BME280;63709;53.258;-8.814;2023-05-19T02:42:05;103140.13;;;11.98;100.00
64340;BME280;63709;53.258;-8.814;2023-05-19T02:44:31;103126.19;;;11.90;100.00
64340;BME280;63709;53.258;-8.814;2023-05-19T02:46:56;103131.72;;;11.85;100.00
64340;BME280;63709;53.258;-8.814;2023-05-19T02:49:21;103144.66;;;11.96;100.00
64340;BME280;63709;53.258;-8.814;2023-05-19T02:51:47;103141.84;;;11.99;100.00
64340;BME280;63709;53.258;-8.814;2023-05-19T02:54:13;103149.94;;;11.97;100.00
64340;BME280;63709;53.258;-8.814;2023-05-19T02:56:38;103160.72;;;11.96;100.00
64340;BME280;63709;53.258;-8.814;2023-05-19T02:59:03;103148.28;;;11.95;100.00
64340;BME280;63709;53.258;-8.814;2023-05-19T03:01:30;103161.38;;;12.01;100.00
64340;BME280;63709;53.258;-8.814;2023-05-19T03:03:57;103159.56;;;12.01;100.00
64340;BME280;63709;53.258;-8.814;2023-05-19T03:06:24;103135.06;;;11.90;100.00
64340;BME280;63709;53.258;-8.814;2023-05-19T03:08:50;103135.06;;;11.90;100.00
64340;BME280;63709;53.258;-8.814;2023-05-19T03:11:16;103160.97;;;11.90;100.00
64340;BME280;63709;53.258;-8.814;2023-05-19T03:13:41;103156.44;;;11.92;100.00
64340;BME280;63709;53.258;-8.814;2023-05-19T03:16:08;103159.03;;;11.93;100.00
64340;BME280;63709;53.258;-8.814;2023-05-19T03:18:33;103157.22;;;11.94;100.00
64340;BME280;63709;53.258;-8.814;2023-05-19T03:20:59;103146.84;;;11.86;100.00
64340;BME280;63709;53.258;-8.814;2023-05-19T03:23:26;103158.25;;;11.91;100.00
64340;BME280;63709;53.258;-8.814;2023-05-19T03:25:52;103142.78;;;11.98;100.00
64340;BME280;63709;53.258;-8.814;2023-05-19T03:28:19;103139.72;;;11.86;100.00
64340;BME280;63709;53.258;-8.814;2023-05-19T03:30:45;103130.19;;;11.79;100.00
64340;BME280;63709;53.258;-8.814;2023-05-19T03:33:14;103153.97;;;11.87;100.00
64340;BME280;63709;53.258;-8.814;2023-05-19T03:35:39;103161.38;;;11.79;100.00
64340;BME280;63709;53.258;-8.814;2023-05-19T03:38:05;103169.63;;;11.74;100.00
64340;BME280;63709;53.258;-8.814;2023-05-19T03:40:30;103142.22;;;11.47;100.00
64340;BME280;63709;53.258;-8.814;2023-05-19T03:42:56;103155.16;;;11.58;100.00
64340;BME280;63709;53.258;-8.814;2023-05-19T03:45:22;103154.59;;;11.72;100.00
64340;BME280;63709;53.258;-8.814;2023-05-19T03:47:48;103149.28;;;11.70;100.00
64340;BME280;63709;53.258;-8.814;2023-05-19T03:50:13;103153.44;;;11.77;100.00
64340;BME280;63709;53.258;-8.814;2023-05-19T03:52:40;103154.38;;;11.76;100.00
64340;BME280;63709;53.258;-8.814;2023-05-19T03:55:09;103158.19;;;11.71;100.00
64340;BME280;63709;53.258;-8.814;2023-05-19T03:57:35;103156.78;;;11.82;100.00
64340;BME280;63709;53.258;-8.814;2023-05-19T04:00:03;103132.16;;;11.74;100.00
64340;BME280;63709;53.258;-8.814;2023-05-19T04:02:30;103133.22;;;11.70;100.00
64340;BME280;63709;53.258;-8.814;2023-05-19T04:04:56;103160.19;;;11.88;100.00
64340;BME280;63709;53.258;-8.814;2023-05-19T04:07:23;103161.78;;;11.92;100.00
64340;BME280;63709;53.258;-8.814;2023-05-19T04:09:49;103166.31;;;11.90;100.00
64340;BME280;63709;53.258;-8.814;2023-05-19T04:12:15;103167.13;;;11.92;100.00
64340;BME280;63709;53.258;-8.814;2023-05-19T04:14:41;103161.66;;;11.95;100.00
64340;BME280;63709;53.258;-8.814;2023-05-19T04:17:06;103161.38;;;12.01;100.00
64340;BME280;63709;53.258;-8.814;2023-05-19T04:19:32;103155.25;;;11.99;100.00
64340;BME280;63709;53.258;-8.814;2023-05-19T04:21:58;103166.25;;;12.11;100.00
64340;BME280;63709;53.258;-8.814;2023-05-19T04:24:23;103173.38;;;12.13;100.00
64340;BME280;63709;53.258;-8.814;2023-05-19T04:26:49;103163.31;;;12.18;100.00
64340;BME280;63709;53.258;-8.814;2023-05-19T04:29:16;103165.44;;;12.30;100.00
64340;BME280;63709;53.258;-8.814;2023-05-19T04:31:43;103165.41;;;12.31;100.00
64340;BME280;63709;53.258;-8.814;2023-05-19T04:34:09;103158.16;;;12.33;100.00
64340;BME280;63709;53.258;-8.814;2023-05-19T04:36:36;103166.91;;;12.37;100.00
64340;BME280;63709;53.258;-8.814;2023-05-19T04:39:03;103150.06;;;12.35;100.00
64340;BME280;63709;53.258;-8.814;2023-05-19T04:41:33;103161.09;;;12.48;100.00
64340;BME280;63709;53.258;-8.814;2023-05-19T04:43:59;103163.63;;;12.51;100.00
64340;BME280;63709;53.258;-8.814;2023-05-19T04:46:25;103165.09;;;12.58;100.00
64340;BME280;63709;53.258;-8.814;2023-05-19T04:48:52;103160.50;;;12.60;100.00
64340;BME280;63709;53.258;-8.814;2023-05-19T04:51:19;103161.75;;;12.72;100.00
64340;BME280;63709;53.258;-8.814;2023-05-19T04:53:45;103151.25;;;12.67;100.00
64340;BME280;63709;53.258;-8.814;2023-05-19T04:56:11;103158.16;;;12.73;100.00
64340;BME280;63709;53.258;-8.814;2023-05-19T04:58:40;103160.75;;;12.74;100.00
64340;BME280;63709;53.258;-8.814;2023-05-19T05:01:06;103168.50;;;12.80;100.00
64340;BME280;63709;53.258;-8.814;2023-05-19T05:03:34;103159.88;;;12.93;100.00
64340;BME280;63709;53.258;-8.814;2023-05-19T05:05:59;103164.97;;;12.99;100.00
64340;BME280;63709;53.258;-8.814;2023-05-19T05:08:25;103162.56;;;12.93;100.00
64340;BME280;63709;53.258;-8.814;2023-05-19T05:10:52;103173.97;;;12.98;100.00
64340;BME280;63709;53.258;-8.814;2023-05-19T05:13:19;103167.56;;;13.00;100.00
64340;BME280;63709;53.258;-8.814;2023-05-19T05:15:45;103164.50;;;13.08;100.00
64340;BME280;63709;53.258;-8.814;2023-05-19T05:18:12;103163.50;;;13.11;100.00
64340;BME280;63709;53.258;-8.814;2023-05-19T05:20:38;103155.69;;;13.06;100.00
64340;BME280;63709;53.258;-8.814;2023-05-19T05:23:05;103166.78;;;13.17;100.00
64340;BME280;63709;53.258;-8.814;2023-05-19T05:25:31;103145.59;;;13.11;100.00
64340;BME280;63709;53.258;-8.814;2023-05-19T05:28:10;103168.41;;;13.20;100.00
64340;BME280;63709;53.258;-8.814;2023-05-19T05:30:35;103176.94;;;13.29;100.00
64340;BME280;63709;53.258;-8.814;2023-05-19T05:33:01;103182.78;;;13.38;100.00
64340;BME280;63709;53.258;-8.814;2023-05-19T05:35:27;103177.28;;;13.22;100.00
64340;BME280;63709;53.258;-8.814;2023-05-19T05:37:53;103189.34;;;13.32;100.00
64340;BME280;63709;53.258;-8.814;2023-05-19T05:40:21;103184.59;;;13.37;100.00
64340;BME280;63709;53.258;-8.814;2023-05-19T05:42:48;103188.97;;;13.40;100.00
64340;BME280;63709;53.258;-8.814;2023-05-19T05:45:14;103170.22;;;13.19;100.00
64340;BME280;63709;53.258;-8.814;2023-05-19T05:47:40;103170.22;;;13.19;100.00
64340;BME280;63709;53.258;-8.814;2023-05-19T05:50:08;103181.28;;;13.32;100.00
64340;BME280;63709;53.258;-8.814;2023-05-19T05:52:35;103168.75;;;13.32;100.00
64340;BME280;63709;53.258;-8.814;2023-05-19T05:55:02;103172.00;;;13.39;100.00
64340;BME280;63709;53.258;-8.814;2023-05-19T05:57:28;103185.75;;;13.50;100.00
64340;BME280;63709;53.258;-8.814;2023-05-19T05:59:55;103180.75;;;13.43;100.00
64340;BME280;63709;53.258;-8.814;2023-05-19T06:02:23;103200.44;;;13.61;100.00
64340;BME280;63709;53.258;-8.814;2023-05-19T06:04:49;103205.44;;;13.68;100.00
64340;BME280;63709;53.258;-8.814;2023-05-19T06:07:15;103204.50;;;13.69;100.00
64340;BME280;63709;53.258;-8.814;2023-05-19T06:09:43;103185.63;;;13.71;100.00
64340;BME280;63709;53.258;-8.814;2023-05-19T06:12:09;103195.56;;;13.86;100.00
64340;BME280;63709;53.258;-8.814;2023-05-19T06:14:36;103182.88;;;13.90;100.00
64340;BME280;63709;53.258;-8.814;2023-05-19T06:17:01;103195.75;;;14.00;100.00
64340;BME280;63709;53.258;-8.814;2023-05-19T06:19:27;103196.56;;;14.02;100.00
64340;BME280;63709;53.258;-8.814;2023-05-19T06:21:52;103197.09;;;14.09;100.00
64340;BME280;63709;53.258;-8.814;2023-05-19T06:24:18;103181.00;;;14.09;100.00
64340;BME280;63709;53.258;-8.814;2023-05-19T06:26:44;103191.44;;;14.31;100.00
64340;BME280;63709;53.258;-8.814;2023-05-19T06:29:09;103195.75;;;14.35;100.00
64340;BME280;63709;53.258;-8.814;2023-05-19T06:31:41;103199.13;;;14.39;100.00
64340;BME280;63709;53.258;-8.814;2023-05-19T06:34:07;103181.97;;;14.41;100.00
64340;BME280;63709;53.258;-8.814;2023-05-19T06:36:38;103182.38;;;14.34;100.00
64340;BME280;63709;53.258;-8.814;2023-05-19T06:39:04;103216.13;;;14.57;100.00
64340;BME280;63709;53.258;-8.814;2023-05-19T06:41:31;103200.69;;;14.60;100.00
64340;BME280;63709;53.258;-8.814;2023-05-19T06:43:56;103210.81;;;14.72;100.00
64340;BME280;63709;53.258;-8.814;2023-05-19T06:46:23;103209.59;;;14.78;100.00
64340;BME280;63709;53.258;-8.814;2023-05-19T06:48:48;103211.84;;;14.86;100.00
64340;BME280;63709;53.258;-8.814;2023-05-19T06:51:15;103214.63;;;14.84;100.00
64340;BME280;63709;53.258;-8.814;2023-05-19T06:53:47;103205.72;;;14.84;100.00
64340;BME280;63709;53.258;-8.814;2023-05-19T06:56:13;103222.81;;;14.98;100.00
64340;BME280;63709;53.258;-8.814;2023-05-19T06:58:39;103218.91;;;15.04;100.00
64340;BME280;63709;53.258;-8.814;2023-05-19T07:01:05;103213.63;;;15.18;100.00
64340;BME280;63709;53.258;-8.814;2023-05-19T07:03:32;103220.66;;;15.21;100.00
64340;BME280;63709;53.258;-8.814;2023-05-19T07:05:57;103216.59;;;15.30;100.00
64340;BME280;63709;53.258;-8.814;2023-05-19T07:08:23;103230.03;;;15.45;100.00
64340;BME280;63709;53.258;-8.814;2023-05-19T07:10:50;103205.81;;;15.30;100.00
64340;BME280;63709;53.258;-8.814;2023-05-19T07:13:15;103235.06;;;15.52;100.00
64340;BME280;63709;53.258;-8.814;2023-05-19T07:15:41;103239.84;;;15.62;100.00
64340;BME280;63709;53.258;-8.814;2023-05-19T07:18:08;103217.78;;;15.71;100.00
64340;BME280;63709;53.258;-8.814;2023-05-19T07:20:35;103219.44;;;15.74;100.00
64340;BME280;63709;53.258;-8.814;2023-05-19T07:23:00;103235.22;;;15.96;100.00
64340;BME280;63709;53.258;-8.814;2023-05-19T07:25:27;103237.09;;;16.10;100.00
64340;BME280;63709;53.258;-8.814;2023-05-19T07:27:55;103247.41;;;16.17;100.00
64340;BME280;63709;53.258;-8.814;2023-05-19T07:30:21;103248.69;;;16.26;100.00
64340;BME280;63709;53.258;-8.814;2023-05-19T07:32:47;103241.00;;;16.34;100.00
64340;BME280;63709;53.258;-8.814;2023-05-19T07:35:12;103214.72;;;16.38;100.00
64340;BME280;63709;53.258;-8.814;2023-05-19T07:37:39;103247.97;;;16.67;100.00
64340;BME280;63709;53.258;-8.814;2023-05-19T07:40:05;103244.75;;;16.76;100.00
64340;BME280;63709;53.258;-8.814;2023-05-19T07:42:32;103243.31;;;16.85;100.00
64340;BME280;63709;53.258;-8.814;2023-05-19T07:44:58;103222.09;;;16.93;100.00
64340;BME280;63709;53.258;-8.814;2023-05-19T07:47:24;103213.25;;;16.91;100.00
64340;BME280;63709;53.258;-8.814;2023-05-19T07:49:49;103221.41;;;17.18;100.00
64340;BME280;63709;53.258;-8.814;2023-05-19T07:52:15;103211.09;;;17.25;100.00
64340;BME280;63709;53.258;-8.814;2023-05-19T07:54:44;103205.25;;;17.31;100.00
64340;BME280;63709;53.258;-8.814;2023-05-19T07:57:11;103197.16;;;17.31;100.00
64340;BME280;63709;53.258;-8.814;2023-05-19T07:59:36;103219.38;;;17.49;100.00
64340;BME280;63709;53.258;-8.814;2023-05-19T08:02:02;103218.56;;;17.61;100.00
64340;BME280;63709;53.258;-8.814;2023-05-19T08:04:28;103202.38;;;17.61;100.00
64340;BME280;63709;53.258;-8.814;2023-05-19T08:06:55;103192.22;;;17.64;100.00
64340;BME280;63709;53.258;-8.814;2023-05-19T08:09:22;103190.97;;;17.70;100.00
64340;BME280;63709;53.258;-8.814;2023-05-19T08:11:51;103196.41;;;17.83;100.00
64340;BME280;63709;53.258;-8.814;2023-05-19T08:14:16;103207.03;;;17.86;100.00
64340;BME280;63709;53.258;-8.814;2023-05-19T08:16:42;103215.31;;;18.10;100.00
64340;BME280;63709;53.258;-8.814;2023-05-19T08:19:08;103203.75;;;18.21;100.00
64340;BME280;63709;53.258;-8.814;2023-05-19T08:21:34;103210.56;;;18.26;100.00
64340;BME280;63709;53.258;-8.814;2023-05-19T08:24:01;103213.72;;;18.33;100.00
64340;BME280;63709;53.258;-8.814;2023-05-19T08:26:27;103199.41;;;18.31;100.00
64340;BME280;63709;53.258;-8.814;2023-05-19T08:28:53;103222.03;;;18.43;100.00
64340;BME280;63709;53.258;-8.814;2023-05-19T08:31:18;103216.84;;;18.52;100.00
64340;BME280;63709;53.258;-8.814;2023-05-19T08:33:44;103219.22;;;18.57;100.00
64340;BME280;63709;53.258;-8.814;2023-05-19T08:36:10;103192.28;;;18.43;100.00
64340;BME280;63709;53.258;-8.814;2023-05-19T08:38:37;103217.81;;;18.64;100.00
64340;BME280;63709;53.258;-8.814;2023-05-19T08:41:03;103217.81;;;18.64;100.00
64340;BME280;63709;53.258;-8.814;2023-05-19T08:43:31;103214.69;;;18.70;100.00
64340;BME280;63709;53.258;-8.814;2023-05-19T08:45:58;103206.13;;;18.63;100.00
64340;BME280;63709;53.258;-8.814;2023-05-19T08:48:28;103199.09;;;18.61;100.00
64340;BME280;63709;53.258;-8.814;2023-05-19T08:54:13;103203.63;;;18.60;100.00
64340;BME280;63709;53.258;-8.814;2023-05-19T08:56:42;103208.63;;;18.54;100.00
64340;BME280;63709;53.258;-8.814;2023-05-19T08:59:09;103208.09;;;18.61;100.00
64340;BME280;63709;53.258;-8.814;2023-05-19T09:01:36;103200.84;;;18.62;100.00
64340;BME280;63709;53.258;-8.814;2023-05-19T09:04:02;103211.66;;;18.62;100.00
64340;BME280;63709;53.258;-8.814;2023-05-19T09:06:30;103212.31;;;18.53;100.00
64340;BME280;63709;53.258;-8.814;2023-05-19T09:08:57;103207.97;;;18.63;100.00
64340;BME280;63709;53.258;-8.814;2023-05-19T09:11:24;103204.94;;;18.68;100.00
64340;BME280;63709;53.258;-8.814;2023-05-19T09:13:57;103185.34;;;18.64;100.00
64340;BME280;63709;53.258;-8.814;2023-05-19T09:16:24;103202.69;;;18.74;100.00
64340;BME280;63709;53.258;-8.814;2023-05-19T09:18:54;103192.72;;;18.75;100.00
64340;BME280;63709;53.258;-8.814;2023-05-19T09:21:29;103186.13;;;18.66;100.00
64340;BME280;63709;53.258;-8.814;2023-05-19T09:23:56;103191.75;;;18.76;100.00
64340;BME280;63709;53.258;-8.814;2023-05-19T09:29:15;103215.59;;;18.71;100.00
64340;BME280;63709;53.258;-8.814;2023-05-19T09:34:14;103224.88;;;18.79;100.00
64340;BME280;63709;53.258;-8.814;2023-05-19T09:36:41;103219.59;;;18.78;100.00
64340;BME280;63709;53.258;-8.814;2023-05-19T09:39:15;103205.28;;;18.76;100.00
64340;BME280;63709;53.258;-8.814;2023-05-19T09:41:50;103204.34;;;18.77;100.00
64340;BME280;63709;53.258;-8.814;2023-05-19T09:46:49;103219.47;;;18.92;100.00
64340;BME280;63709;53.258;-8.814;2023-05-19T09:49:23;103216.53;;;18.95;100.00
64340;BME280;63709;53.258;-8.814;2023-05-19T09:52:00;103224.88;;;18.92;100.00
64340;BME280;63709;53.258;-8.814;2023-05-19T09:54:26;103219.00;;;18.98;100.00
64340;BME280;63709;53.258;-8.814;2023-05-19T09:57:01;103212.94;;;18.95;100.00
64340;BME280;63709;53.258;-8.814;2023-05-19T09:59:29;103210.13;;;18.96;100.00
64340;BME280;63709;53.258;-8.814;2023-05-19T10:01:57;103212.16;;;19.05;100.00
64340;BME280;63709;53.258;-8.814;2023-05-19T10:04:25;103209.22;;;19.21;100.00
64340;BME280;63709;53.258;-8.814;2023-05-19T10:06:52;103212.31;;;19.28;100.00
64340;BME280;63709;53.258;-8.814;2023-05-19T10:09:24;103212.84;;;19.33;100.00
64340;BME280;63709;53.258;-8.814;2023-05-19T10:11:51;103197.81;;;19.29;100.00
64340;BME280;63709;53.258;-8.814;2023-05-19T10:14:21;103211.56;;;19.26;100.00
64340;BME280;63709;53.258;-8.814;2023-05-19T10:16:54;103210.38;;;19.30;100.00
64340;BME280;63709;53.258;-8.814;2023-05-19T10:19:21;103212.38;;;19.39;100.00
64340;BME280;63709;53.258;-8.814;2023-05-19T10:21:48;103207.94;;;19.38;100.00
64340;BME280;63709;53.258;-8.814;2023-05-19T10:24:14;103201.81;;;19.36;100.00
64340;BME280;63709;53.258;-8.814;2023-05-19T10:26:44;103205.25;;;19.38;100.00
64340;BME280;63709;53.258;-8.814;2023-05-19T10:29:14;103214.66;;;19.45;100.00
64340;BME280;63709;53.258;-8.814;2023-05-19T10:31:40;103212.56;;;19.49;100.00
64340;BME280;63709;53.258;-8.814;2023-05-19T10:36:57;103214.34;;;19.61;100.00
64340;BME280;63709;53.258;-8.814;2023-05-19T10:39:28;103214.94;;;19.53;100.00
64340;BME280;63709;53.258;-8.814;2023-05-19T10:42:06;103223.19;;;19.52;100.00
64340;BME280;63709;53.258;-8.814;2023-05-19T10:47:43;103219.72;;;19.63;100.00
64340;BME280;63709;53.258;-8.814;2023-05-19T10:50:09;103214.34;;;19.74;100.00
64340;BME280;63709;53.258;-8.814;2023-05-19T10:52:39;103222.63;;;19.83;100.00
64340;BME280;63709;53.258;-8.814;2023-05-19T10:55:11;103222.47;;;19.74;100.00
64340;BME280;63709;53.258;-8.814;2023-05-19T10:57:55;103213.75;;;19.81;100.00
64340;BME280;63709;53.258;-8.814;2023-05-19T11:00:28;103215.03;;;19.65;100.00
64340;BME280;63709;53.258;-8.814;2023-05-19T11:03:16;103215.38;;;19.84;100.00
64340;BME280;63709;53.258;-8.814;2023-05-19T11:05:43;103193.56;;;19.86;100.00
64340;BME280;63709;53.258;-8.814;2023-05-19T11:08:30;103204.31;;;19.63;100.00
64340;BME280;63709;53.258;-8.814;2023-05-19T11:11:12;103212.34;;;19.76;100.00
64340;BME280;63709;53.258;-8.814;2023-05-19T11:13:41;103211.63;;;19.74;100.00
64340;BME280;63709;53.258;-8.814;2023-05-19T11:16:07;103191.22;;;19.81;100.00
64340;BME280;63709;53.258;-8.814;2023-05-19T11:18:48;103199.06;;;19.73;100.00
64340;BME280;63709;53.258;-8.814;2023-05-19T11:21:21;103192.56;;;19.87;100.00
64340;BME280;63709;53.258;-8.814;2023-05-19T11:23:46;103182.94;;;19.82;100.00
64340;BME280;63709;53.258;-8.814;2023-05-19T11:26:12;103184.84;;;19.93;100.00
64340;BME280;63709;53.258;-8.814;2023-05-19T11:28:39;103197.59;;;20.15;100.00
64340;BME280;63709;53.258;-8.814;2023-05-19T11:31:05;103199.09;;;20.19;100.00
64340;BME280;63709;53.258;-8.814;2023-05-19T11:33:34;103198.22;;;20.19;100.00
64340;BME280;63709;53.258;-8.814;2023-05-19T11:36:06;103195.19;;;20.46;100.00
64340;BME280;63709;53.258;-8.814;2023-05-19T11:38:33;103181.53;;;20.92;100.00
64340;BME280;63709;53.258;-8.814;2023-05-19T11:40:59;103179.84;;;21.23;100.00
64340;BME280;63709;53.258;-8.814;2023-05-19T11:43:26;103184.19;;;21.37;100.00
64340;BME280;63709;53.258;-8.814;2023-05-19T11:45:56;103197.94;;;22.10;100.00
64340;BME280;63709;53.258;-8.814;2023-05-19T11:48:23;103194.25;;;22.32;100.00
64340;BME280;63709;53.258;-8.814;2023-05-19T11:50:51;103170.91;;;22.29;100.00
64340;BME280;63709;53.258;-8.814;2023-05-19T11:53:18;103184.91;;;22.04;100.00
64340;BME280;63709;53.258;-8.814;2023-05-19T11:55:47;103181.56;;;22.00;100.00
64340;BME280;63709;53.258;-8.814;2023-05-19T11:58:13;103174.06;;;21.92;100.00
64340;BME280;63709;53.258;-8.814;2023-05-19T12:00:40;103177.38;;;21.75;100.00
64340;BME280;63709;53.258;-8.814;2023-05-19T12:03:08;103172.03;;;22.27;100.00
64340;BME280;63709;53.258;-8.814;2023-05-19T12:05:42;103165.28;;;22.52;100.00
64340;BME280;63709;53.258;-8.814;2023-05-19T12:08:09;103156.47;;;22.69;100.00
64340;BME280;63709;53.258;-8.814;2023-05-19T12:10:34;103189.19;;;22.17;100.00
64340;BME280;63709;53.258;-8.814;2023-05-19T12:13:02;103170.09;;;22.38;100.00
64340;BME280;63709;53.258;-8.814;2023-05-19T12:15:27;103189.31;;;22.46;100.00
64340;BME280;63709;53.258;-8.814;2023-05-19T12:17:58;103192.88;;;22.68;100.00
64340;BME280;63709;53.258;-8.814;2023-05-19T12:20:25;103185.72;;;22.77;100.00
64340;BME280;63709;53.258;-8.814;2023-05-19T12:22:53;103190.50;;;23.15;100.00
64340;BME280;63709;53.258;-8.814;2023-05-19T12:25:20;103197.84;;;23.53;100.00
64340;BME280;63709;53.258;-8.814;2023-05-19T12:27:46;103186.94;;;23.34;100.00
64340;BME280;63709;53.258;-8.814;2023-05-19T12:30:15;103195.81;;;23.36;100.00
64340;BME280;63709;53.258;-8.814;2023-05-19T12:32:41;103194.22;;;23.14;100.00
64340;BME280;63709;53.258;-8.814;2023-05-19T12:35:07;103193.22;;;23.15;100.00
64340;BME280;63709;53.258;-8.814;2023-05-19T12:37:35;103188.66;;;23.25;100.00
64340;BME280;63709;53.258;-8.814;2023-05-19T12:40:02;103179.59;;;23.25;100.00
64340;BME280;63709;53.258;-8.814;2023-05-19T12:42:29;103181.22;;;23.56;100.00
64340;BME280;63709;53.258;-8.814;2023-05-19T12:44:57;103181.19;;;23.47;100.00
64340;BME280;63709;53.258;-8.814;2023-05-19T12:47:34;103190.56;;;23.63;100.00
64340;BME280;63709;53.258;-8.814;2023-05-19T12:50:05;103183.38;;;23.91;100.00
64340;BME280;63709;53.258;-8.814;2023-05-19T12:52:41;103193.28;;;24.12;100.00
64340;BME280;63709;53.258;-8.814;2023-05-19T12:55:07;103200.88;;;24.18;100.00
64340;BME280;63709;53.258;-8.814;2023-05-19T12:57:37;103199.03;;;24.09;100.00
64340;BME280;63709;53.258;-8.814;2023-05-19T13:00:05;103196.88;;;24.03;100.00
64340;BME280;63709;53.258;-8.814;2023-05-19T13:02:34;103193.88;;;23.96;100.00
64340;BME280;63709;53.258;-8.814;2023-05-19T13:05:01;103187.72;;;23.84;100.00
64340;BME280;63709;53.258;-8.814;2023-05-19T13:07:30;103185.97;;;23.83;100.00